createdAt,value
2019-05-05T00:00:27.873Z,0.00
2019-05-05T00:01:27.788Z,0.00
2019-05-05T00:02:27.699Z,0.00
2019-05-05T00:03:27.662Z,0.00
2019-05-05T00:04:27.525Z,0.00
2019-05-05T00:05:27.443Z,0.00
2019-05-05T00:06:27.353Z,0.00
2019-05-05T00:07:27.266Z,0.00
2019-05-05T00:08:27.180Z,0.00
2019-05-05T00:09:27.091Z,0.00
2019-05-05T00:10:27.011Z,0.00
2019-05-05T00:11:26.917Z,0.00
2019-05-05T00:12:26.835Z,0.00
2019-05-05T00:13:26.744Z,0.00
2019-05-05T00:14:26.657Z,0.00
2019-05-05T00:15:26.570Z,0.00
2019-05-05T00:16:26.484Z,0.00
2019-05-05T00:17:26.395Z,0.00
2019-05-05T00:18:26.309Z,0.00
2019-05-05T00:19:32.581Z,0.00
2019-05-05T00:20:26.136Z,0.00
2019-05-05T00:21:26.049Z,0.00
2019-05-05T00:22:25.962Z,0.00
2019-05-05T00:23:25.875Z,0.00
2019-05-05T00:24:25.792Z,0.00
2019-05-05T00:25:25.700Z,0.00
2019-05-05T00:26:25.615Z,0.00
2019-05-05T00:27:25.542Z,0.00
2019-05-05T00:28:25.439Z,0.00
2019-05-05T00:29:25.499Z,0.00
2019-05-05T00:30:25.266Z,0.00
2019-05-05T00:31:25.181Z,0.00
2019-05-05T00:32:25.094Z,0.00
2019-05-05T00:33:25.085Z,0.00
2019-05-05T00:34:24.920Z,0.00
2019-05-05T00:35:25.292Z,0.00
2019-05-05T00:36:24.782Z,0.00
2019-05-05T00:37:25.634Z,0.00
2019-05-05T00:38:24.984Z,0.00
2019-05-05T00:39:25.487Z,0.00
2019-05-05T00:40:24.925Z,0.00
2019-05-05T00:41:25.374Z,0.00
2019-05-05T00:42:24.813Z,0.00
2019-05-05T00:43:25.221Z,0.00
2019-05-05T00:44:24.749Z,0.00
2019-05-05T00:45:25.295Z,0.00
2019-05-05T00:46:24.545Z,0.00
2019-05-05T00:47:25.075Z,0.00
2019-05-05T00:48:24.529Z,0.00
2019-05-05T00:49:25.029Z,0.00
2019-05-05T00:50:25.261Z,0.00
2019-05-05T00:51:24.480Z,0.00
2019-05-05T00:52:24.548Z,0.00
2019-05-05T00:53:25.060Z,0.00
2019-05-05T00:54:24.379Z,0.00
2019-05-05T00:55:24.418Z,0.00
2019-05-05T00:56:24.914Z,0.00
2019-05-05T00:57:24.312Z,0.00
2019-05-05T00:58:24.663Z,0.00
2019-05-05T00:59:22.741Z,0.00
2019-05-05T01:00:24.414Z,0.00
2019-05-05T01:01:22.566Z,0.00
2019-05-05T01:02:22.482Z,0.00
2019-05-05T01:03:24.216Z,0.00
2019-05-05T01:04:22.307Z,0.00
2019-05-05T01:05:22.218Z,0.00
2019-05-05T01:06:22.131Z,0.00
2019-05-05T01:07:22.045Z,0.00
2019-05-05T01:08:21.957Z,0.00
2019-05-05T01:09:21.874Z,0.00
2019-05-05T01:10:21.783Z,0.00
2019-05-05T01:11:21.700Z,0.00
2019-05-05T01:12:21.608Z,0.00
2019-05-05T01:13:21.521Z,0.00
2019-05-05T01:14:21.435Z,0.00
2019-05-05T01:15:21.347Z,0.00
2019-05-05T01:16:21.261Z,0.00
2019-05-05T01:17:21.174Z,0.00
2019-05-05T01:18:21.086Z,0.00
2019-05-05T01:19:21.000Z,0.00
2019-05-05T01:20:20.911Z,0.00
2019-05-05T01:21:20.825Z,0.00
2019-05-05T01:22:20.736Z,0.00
2019-05-05T01:23:20.650Z,0.00
2019-05-05T01:24:20.566Z,0.00
2019-05-05T01:25:20.474Z,0.00
2019-05-05T01:26:20.388Z,0.00
2019-05-05T01:27:20.302Z,0.00
2019-05-05T01:28:20.264Z,0.00
2019-05-05T01:29:20.126Z,0.00
2019-05-05T01:30:20.039Z,0.00
2019-05-05T01:31:19.955Z,0.00
2019-05-05T01:32:32.666Z,0.00
2019-05-05T01:33:19.775Z,0.00
2019-05-05T01:34:19.689Z,0.00
2019-05-05T01:35:19.603Z,0.00
2019-05-05T01:36:19.515Z,0.00
2019-05-05T01:37:19.427Z,0.00
2019-05-05T01:38:19.340Z,0.00
2019-05-05T01:39:19.252Z,0.00
2019-05-05T01:40:19.166Z,0.00
2019-05-05T01:41:19.079Z,0.00
2019-05-05T01:42:18.991Z,0.00
2019-05-05T01:43:18.907Z,0.00
2019-05-05T01:44:18.817Z,0.00
2019-05-05T01:45:18.729Z,0.00
2019-05-05T01:46:18.645Z,0.00
2019-05-05T01:47:18.555Z,0.00
2019-05-05T01:48:18.468Z,0.00
2019-05-05T01:49:18.379Z,0.00
2019-05-05T01:50:21.214Z,0.00
2019-05-05T01:51:18.206Z,0.00
2019-05-05T01:52:18.119Z,0.00
2019-05-05T01:53:18.032Z,0.00
2019-05-05T01:54:17.944Z,0.00
2019-05-05T01:55:17.857Z,0.00
2019-05-05T01:56:17.821Z,0.00
2019-05-05T01:57:17.685Z,0.00
2019-05-05T01:58:17.596Z,0.00
2019-05-05T01:59:17.510Z,0.00
2019-05-05T02:00:17.426Z,0.00
2019-05-05T02:01:17.383Z,0.00
2019-05-05T02:02:17.245Z,0.00
2019-05-05T02:03:17.158Z,0.00
2019-05-05T02:04:17.072Z,0.00
2019-05-05T02:05:16.983Z,0.00
2019-05-05T02:06:16.895Z,0.00
2019-05-05T02:07:16.809Z,0.00
2019-05-05T02:08:16.723Z,0.00
2019-05-05T02:09:16.634Z,0.00
2019-05-05T02:10:16.548Z,0.00
2019-05-05T02:11:16.460Z,0.00
2019-05-05T02:12:16.372Z,0.00
2019-05-05T02:13:16.285Z,0.00
2019-05-05T02:14:16.197Z,0.00
2019-05-05T02:15:16.109Z,0.00
2019-05-05T02:16:16.023Z,0.00
2019-05-05T02:17:15.934Z,0.00
2019-05-05T02:18:15.848Z,0.00
2019-05-05T02:19:15.761Z,0.00
2019-05-05T02:20:28.425Z,0.00
2019-05-05T02:21:15.584Z,0.00
2019-05-05T02:22:15.499Z,0.00
2019-05-05T02:23:15.411Z,0.00
2019-05-05T02:24:15.326Z,0.00
2019-05-05T02:25:15.236Z,0.00
2019-05-05T02:26:15.446Z,0.00
2019-05-05T02:27:15.060Z,0.00
2019-05-05T02:28:15.148Z,0.00
2019-05-05T02:29:14.887Z,0.00
2019-05-05T02:30:16.185Z,0.00
2019-05-05T02:31:16.684Z,0.00
2019-05-05T02:32:15.771Z,0.00
2019-05-05T02:33:15.706Z,0.00
2019-05-05T02:34:16.503Z,0.00
2019-05-05T02:35:16.341Z,0.00
2019-05-05T02:36:15.950Z,0.00
2019-05-05T02:37:16.017Z,0.00
2019-05-05T02:38:15.692Z,0.00
2019-05-05T02:39:16.047Z,0.00
2019-05-05T02:40:15.923Z,0.00
2019-05-05T02:41:15.440Z,0.00
2019-05-05T02:42:14.692Z,0.00
2019-05-05T02:43:15.073Z,0.00
2019-05-05T02:44:15.429Z,0.00
2019-05-05T02:45:15.568Z,0.00
2019-05-05T02:46:14.411Z,0.00
2019-05-05T02:47:15.502Z,0.00
2019-05-05T02:48:15.302Z,0.00
2019-05-05T02:49:15.139Z,0.00
2019-05-05T02:50:15.586Z,0.00
2019-05-05T02:51:15.182Z,0.00
2019-05-05T02:52:15.053Z,0.00
2019-05-05T02:53:14.291Z,0.00
2019-05-05T02:54:13.684Z,0.00
2019-05-05T02:55:14.580Z,0.00
2019-05-05T02:56:14.530Z,0.00
2019-05-05T02:57:13.497Z,0.00
2019-05-05T02:58:13.992Z,0.00
2019-05-05T02:59:12.271Z,0.00
2019-05-05T03:00:13.499Z,0.00
2019-05-05T03:01:13.997Z,0.00
2019-05-05T03:02:12.009Z,0.00
2019-05-05T03:03:13.475Z,0.00
2019-05-05T03:04:13.950Z,0.00
2019-05-05T03:05:11.748Z,0.00
2019-05-05T03:06:11.665Z,0.00
2019-05-05T03:07:13.658Z,0.00
2019-05-05T03:08:11.490Z,0.00
2019-05-05T03:09:11.400Z,0.00
2019-05-05T03:10:11.316Z,0.00
2019-05-05T03:11:11.227Z,0.00
2019-05-05T03:12:11.276Z,0.00
2019-05-05T03:13:11.054Z,0.00
2019-05-05T03:14:10.966Z,0.00
2019-05-05T03:15:10.879Z,0.00
2019-05-05T03:16:10.795Z,0.00
2019-05-05T03:17:10.704Z,0.00
2019-05-05T03:18:10.620Z,0.00
2019-05-05T03:19:10.533Z,0.00
2019-05-05T03:20:10.495Z,0.00
2019-05-05T03:21:10.357Z,0.00
2019-05-05T03:22:10.272Z,0.00
2019-05-05T03:23:10.185Z,0.00
2019-05-05T03:24:10.099Z,0.00
2019-05-05T03:25:10.111Z,0.00
2019-05-05T03:26:09.925Z,0.00
2019-05-05T03:27:09.839Z,0.00
2019-05-05T03:28:09.753Z,0.00
2019-05-05T03:29:09.664Z,0.00
2019-05-05T03:30:09.635Z,0.00
2019-05-05T03:31:09.495Z,0.00
2019-05-05T03:32:11.723Z,4.00
2019-05-05T03:33:09.322Z,4.00
2019-05-05T03:34:09.234Z,0.00
2019-05-05T03:35:09.147Z,4.00
2019-05-05T03:36:09.161Z,4.00
2019-05-05T03:37:08.974Z,4.00
2019-05-05T03:38:08.887Z,4.00
2019-05-05T03:39:08.801Z,4.00
2019-05-05T03:40:08.715Z,4.00
2019-05-05T03:41:08.628Z,4.00
2019-05-05T03:42:08.542Z,8.00
2019-05-05T03:43:08.454Z,8.00
2019-05-05T03:44:08.370Z,8.00
2019-05-05T03:45:08.283Z,12.00
2019-05-05T03:46:08.199Z,12.00
2019-05-05T03:47:08.109Z,12.00
2019-05-05T03:48:08.023Z,16.00
2019-05-05T03:49:07.936Z,16.00
2019-05-05T03:50:07.850Z,16.00
2019-05-05T03:51:18.289Z,24.00
2019-05-05T03:52:07.681Z,24.00
2019-05-05T03:53:07.597Z,24.00
2019-05-05T03:54:07.506Z,32.00
2019-05-05T03:55:07.421Z,40.00
2019-05-05T03:56:07.333Z,48.00
2019-05-05T03:57:07.246Z,56.00
2019-05-05T03:58:07.160Z,64.00
2019-05-05T03:59:07.074Z,68.00
2019-05-05T04:00:06.990Z,68.00
2019-05-05T04:01:06.903Z,72.00
2019-05-05T04:02:06.818Z,80.00
2019-05-05T04:03:06.781Z,92.00
2019-05-05T04:04:06.644Z,100.00
2019-05-05T04:05:06.558Z,108.00
2019-05-05T04:06:06.477Z,112.00
2019-05-05T04:07:06.395Z,120.00
2019-05-05T04:08:06.308Z,132.00
2019-05-05T04:09:06.214Z,152.00
2019-05-05T04:10:06.128Z,164.00
2019-05-05T04:11:06.042Z,176.00
2019-05-05T04:12:05.956Z,188.00
2019-05-05T04:13:05.869Z,200.00
2019-05-05T04:14:05.782Z,216.00
2019-05-05T04:15:05.698Z,224.00
2019-05-05T04:16:05.618Z,232.00
2019-05-05T04:17:05.533Z,240.00
2019-05-05T04:18:05.440Z,244.00
2019-05-05T04:19:05.354Z,240.00
2019-05-05T04:20:05.269Z,240.00
2019-05-05T04:21:05.181Z,248.00
2019-05-05T04:22:05.097Z,276.00
2019-05-05T04:23:05.010Z,296.00
2019-05-05T04:24:04.927Z,328.00
2019-05-05T04:25:04.836Z,356.00
2019-05-05T04:26:04.751Z,392.00
2019-05-05T04:27:04.666Z,440.00
2019-05-05T04:28:04.640Z,492.00
2019-05-05T04:29:05.237Z,544.00
2019-05-05T04:30:04.408Z,596.00
2019-05-05T04:31:04.322Z,636.00
2019-05-05T04:32:04.726Z,688.00
2019-05-05T04:33:04.250Z,728.00
2019-05-05T04:34:04.274Z,772.00
2019-05-05T04:35:03.979Z,796.00
2019-05-05T04:36:03.994Z,768.00
2019-05-05T04:37:04.254Z,760.00
2019-05-05T04:38:04.774Z,764.00
2019-05-05T04:39:03.842Z,792.00
2019-05-05T04:40:04.159Z,832.00
2019-05-05T04:41:03.620Z,876.00
2019-05-05T04:42:04.750Z,912.00
2019-05-05T04:43:03.855Z,956.00
2019-05-05T04:44:04.005Z,1020.00
2019-05-05T04:45:04.224Z,1096.00
2019-05-05T04:46:04.570Z,1180.00
2019-05-05T04:47:03.888Z,1260.00
2019-05-05T04:48:04.293Z,1300.00
2019-05-05T04:49:03.537Z,1272.00
2019-05-05T04:50:04.301Z,1236.00
2019-05-05T04:51:04.669Z,1232.00
2019-05-05T04:52:04.116Z,1216.00
2019-05-05T04:53:04.434Z,1172.00
2019-05-05T04:54:03.785Z,1160.00
2019-05-05T04:55:03.862Z,1112.00
2019-05-05T04:56:04.067Z,1064.00
2019-05-05T04:57:04.357Z,1048.00
2019-05-05T04:58:02.001Z,1016.00
2019-05-05T04:59:03.837Z,1000.00
2019-05-05T05:00:01.832Z,988.00
2019-05-05T05:01:01.743Z,992.00
2019-05-05T05:02:03.878Z,1004.00
2019-05-05T05:03:01.571Z,1016.00
2019-05-05T05:04:03.593Z,1024.00
2019-05-05T05:05:01.406Z,1044.00
2019-05-05T05:06:01.317Z,1060.00
2019-05-05T05:07:01.237Z,1072.00
2019-05-05T05:08:01.143Z,1096.00
2019-05-05T05:09:01.156Z,1120.00
2019-05-05T05:10:00.972Z,1132.00
2019-05-05T05:11:00.885Z,1136.00
2019-05-05T05:12:00.798Z,1152.00
2019-05-05T05:13:00.713Z,1144.00
2019-05-05T05:14:00.725Z,1160.00
2019-05-05T05:15:00.540Z,1140.00
2019-05-05T05:16:00.455Z,1192.00
2019-05-05T05:17:00.368Z,1220.00
2019-05-05T05:18:00.282Z,1200.00
2019-05-05T05:19:00.197Z,1216.00
2019-05-05T05:20:00.111Z,1244.00
2019-05-05T05:21:00.023Z,1244.00
2019-05-05T05:22:02.205Z,1264.00
2019-05-05T05:22:59.851Z,1284.00
2019-05-05T05:23:59.773Z,1284.00
2019-05-05T05:24:59.681Z,1300.00
2019-05-05T05:25:59.993Z,1320.00
2019-05-05T05:26:59.510Z,1280.00
2019-05-05T05:27:59.423Z,1340.00
2019-05-05T05:28:59.335Z,1352.00
2019-05-05T05:29:59.251Z,1344.00
2019-05-05T05:30:59.166Z,1356.00
2019-05-05T05:31:59.079Z,1352.00
2019-05-05T05:32:58.992Z,1336.00
2019-05-05T05:33:58.907Z,1316.00
2019-05-05T05:34:58.821Z,1360.00
2019-05-05T05:35:58.735Z,1268.00
2019-05-05T05:36:58.650Z,1256.00
2019-05-05T05:37:58.564Z,1260.00
2019-05-05T05:38:58.478Z,1276.00
2019-05-05T05:39:58.393Z,1288.00
2019-05-05T05:40:58.308Z,1372.00
2019-05-05T05:41:58.221Z,1468.00
2019-05-05T05:42:58.134Z,1400.00
2019-05-05T05:43:58.052Z,1316.00
2019-05-05T05:44:57.963Z,1488.00
2019-05-05T05:45:57.877Z,1460.00
2019-05-05T05:46:57.891Z,1388.00
2019-05-05T05:47:57.706Z,1492.00
2019-05-05T05:48:57.619Z,1428.00
2019-05-05T05:49:57.532Z,1372.00
2019-05-05T05:50:57.447Z,1536.00
2019-05-05T05:51:57.365Z,1340.00
2019-05-05T05:52:57.275Z,1424.00
2019-05-05T05:53:57.191Z,1328.00
2019-05-05T05:54:57.104Z,1344.00
2019-05-05T05:55:57.019Z,1328.00
2019-05-05T05:56:56.933Z,1360.00
2019-05-05T05:57:56.859Z,1524.00
2019-05-05T05:58:56.762Z,1380.00
2019-05-05T05:59:56.677Z,1340.00
2019-05-05T06:00:56.590Z,1372.00
2019-05-05T06:02:08.979Z,1408.00
2019-05-05T06:02:56.419Z,1360.00
2019-05-05T06:03:56.334Z,1364.00
2019-05-05T06:04:56.248Z,1384.00
2019-05-05T06:05:56.163Z,1420.00
2019-05-05T06:06:56.082Z,1576.00
2019-05-05T06:07:55.991Z,2448.00
2019-05-05T06:08:55.906Z,2616.00
2019-05-05T06:09:55.820Z,2216.00
2019-05-05T06:10:55.736Z,2084.00
2019-05-05T06:11:55.649Z,2292.00
2019-05-05T06:12:55.662Z,3932.00
2019-05-05T06:13:55.477Z,4084.00
2019-05-05T06:14:55.393Z,3876.00
2019-05-05T06:15:55.307Z,3368.00
2019-05-05T06:16:55.222Z,3972.00
2019-05-05T06:17:55.136Z,2776.00
2019-05-05T06:18:55.052Z,2436.00
2019-05-05T06:19:54.966Z,2428.00
2019-05-05T06:20:54.881Z,2136.00
2019-05-05T06:21:54.795Z,2808.00
2019-05-05T06:22:54.710Z,2336.00
2019-05-05T06:23:54.626Z,1848.00
2019-05-05T06:24:54.541Z,1892.00
2019-05-05T06:25:55.092Z,2084.00
2019-05-05T06:26:54.789Z,2308.00
2019-05-05T06:27:54.328Z,2088.00
2019-05-05T06:28:54.204Z,1956.00
2019-05-05T06:29:54.392Z,1980.00
2019-05-05T06:30:54.659Z,2288.00
2019-05-05T06:31:53.980Z,2452.00
2019-05-05T06:32:54.541Z,3856.00
2019-05-05T06:33:54.318Z,4128.00
2019-05-05T06:34:53.696Z,3592.00
2019-05-05T06:35:53.762Z,4524.00
2019-05-05T06:36:53.719Z,5332.00
2019-05-05T06:37:54.386Z,5188.00
2019-05-05T06:38:54.137Z,4896.00
2019-05-05T06:39:54.402Z,4164.00
2019-05-05T06:40:53.721Z,3644.00
2019-05-05T06:41:53.900Z,3596.00
2019-05-05T06:42:53.989Z,2500.00
2019-05-05T06:43:54.312Z,1912.00
2019-05-05T06:44:53.515Z,1988.00
2019-05-05T06:45:53.538Z,1656.00
2019-05-05T06:46:53.737Z,1724.00
2019-05-05T06:47:53.709Z,1744.00
2019-05-05T06:48:53.860Z,1608.00
2019-05-05T06:49:54.192Z,1920.00
2019-05-05T06:50:54.307Z,1632.00
2019-05-05T06:51:54.515Z,1556.00
2019-05-05T06:52:53.686Z,1744.00
2019-05-05T06:53:53.880Z,2068.00
2019-05-05T06:54:54.151Z,2280.00
2019-05-05T06:55:54.141Z,2300.00
2019-05-05T06:56:53.727Z,2260.00
2019-05-05T06:57:53.766Z,2496.00
2019-05-05T06:58:53.905Z,2872.00
2019-05-05T06:59:51.591Z,3356.00
2019-05-05T07:00:51.511Z,3116.00
2019-05-05T07:01:53.462Z,2360.00
2019-05-05T07:02:51.338Z,2092.00
2019-05-05T07:03:51.258Z,1848.00
2019-05-05T07:04:51.170Z,1708.00
2019-05-05T07:05:51.086Z,2200.00
2019-05-05T07:06:56.221Z,2096.00
2019-05-05T07:07:50.926Z,1816.00
2019-05-05T07:08:50.833Z,1948.00
2019-05-05T07:09:50.750Z,2236.00
2019-05-05T07:10:50.667Z,1824.00
2019-05-05T07:11:50.583Z,2008.00
2019-05-05T07:12:50.504Z,2320.00
2019-05-05T07:13:50.413Z,2240.00
2019-05-05T07:14:50.330Z,2020.00
2019-05-05T07:15:50.246Z,2184.00
2019-05-05T07:16:50.161Z,2404.00
2019-05-05T07:17:50.076Z,2600.00
2019-05-05T07:18:49.993Z,2736.00
2019-05-05T07:19:49.915Z,2760.00
2019-05-05T07:20:49.826Z,2716.00
2019-05-05T07:21:49.740Z,2644.00
2019-05-05T07:23:01.505Z,3852.00
2019-05-05T07:23:49.574Z,5040.00
2019-05-05T07:24:49.493Z,5484.00
2019-05-05T07:25:49.406Z,3564.00
2019-05-05T07:26:49.324Z,3676.00
2019-05-05T07:27:49.238Z,4196.00
2019-05-05T07:28:49.153Z,4112.00
2019-05-05T07:29:49.070Z,3152.00
2019-05-05T07:30:49.018Z,2956.00
2019-05-05T07:31:48.904Z,2336.00
2019-05-05T07:32:48.819Z,2180.00
2019-05-05T07:33:48.735Z,2492.00
2019-05-05T07:34:48.653Z,2136.00
2019-05-05T07:35:58.600Z,2032.00
2019-05-05T07:36:48.486Z,2884.00
2019-05-05T07:37:48.403Z,3336.00
2019-05-05T07:38:48.321Z,3184.00
2019-05-05T07:39:48.236Z,2524.00
2019-05-05T07:40:48.153Z,2264.00
2019-05-05T07:41:48.069Z,2864.00
2019-05-05T07:42:47.986Z,3536.00
2019-05-05T07:43:47.903Z,3396.00
2019-05-05T07:44:47.818Z,3332.00
2019-05-05T07:45:47.734Z,3128.00
2019-05-05T07:46:47.650Z,2912.00
2019-05-05T07:47:47.691Z,2716.00
2019-05-05T07:48:47.485Z,3092.00
2019-05-05T07:49:47.402Z,2748.00
2019-05-05T07:50:58.671Z,3076.00
2019-05-05T07:51:47.263Z,2492.00
2019-05-05T07:52:47.153Z,2388.00
2019-05-05T07:53:47.070Z,2232.00
2019-05-05T07:54:46.987Z,2068.00
2019-05-05T07:55:46.905Z,2440.00
2019-05-05T07:56:46.870Z,2820.00
2019-05-05T07:57:46.738Z,3244.00
2019-05-05T07:58:46.656Z,4708.00
2019-05-05T07:59:46.575Z,4744.00
2019-05-05T08:00:46.491Z,4824.00
2019-05-05T08:01:46.858Z,4844.00
2019-05-05T08:02:46.325Z,4224.00
2019-05-05T08:03:46.241Z,4048.00
2019-05-05T08:04:46.158Z,4052.00
2019-05-05T08:05:46.076Z,4100.00
2019-05-05T08:06:45.993Z,4056.00
2019-05-05T08:07:45.916Z,4068.00
2019-05-05T08:08:45.829Z,4268.00
2019-05-05T08:09:45.747Z,4940.00
2019-05-05T08:10:45.666Z,5396.00
2019-05-05T08:11:45.582Z,4900.00
2019-05-05T08:12:45.501Z,4164.00
2019-05-05T08:13:45.419Z,5168.00
2019-05-05T08:14:45.336Z,4896.00
2019-05-05T08:15:56.787Z,4864.00
2019-05-05T08:16:45.176Z,5516.00
2019-05-05T08:17:45.192Z,6628.00
2019-05-05T08:18:45.011Z,6344.00
2019-05-05T08:19:44.929Z,5548.00
2019-05-05T08:20:44.846Z,5392.00
2019-05-05T08:21:44.764Z,5584.00
2019-05-05T08:22:44.684Z,4868.00
2019-05-05T08:23:44.856Z,4372.00
2019-05-05T08:24:44.519Z,4176.00
2019-05-05T08:25:45.432Z,3720.00
2019-05-05T08:26:44.440Z,3900.00
2019-05-05T08:27:44.767Z,3564.00
2019-05-05T08:28:44.198Z,3416.00
2019-05-05T08:29:44.113Z,3680.00
2019-05-05T08:30:44.204Z,4748.00
2019-05-05T08:31:44.329Z,3700.00
2019-05-05T08:32:43.868Z,2816.00
2019-05-05T08:33:44.243Z,2744.00
2019-05-05T08:34:56.859Z,2712.00
2019-05-05T08:35:44.900Z,2436.00
2019-05-05T08:36:44.639Z,2156.00
2019-05-05T08:37:43.682Z,2180.00
2019-05-05T08:38:44.095Z,2328.00
2019-05-05T08:39:44.689Z,2304.00
2019-05-05T08:40:43.879Z,2108.00
2019-05-05T08:41:45.374Z,2180.00
2019-05-05T08:42:44.531Z,2636.00
2019-05-05T08:43:44.100Z,2332.00
2019-05-05T08:44:44.700Z,2388.00
2019-05-05T08:45:44.416Z,2592.00
2019-05-05T08:46:44.569Z,2828.00
2019-05-05T08:47:43.586Z,3356.00
2019-05-05T08:48:44.593Z,4116.00
2019-05-05T08:49:44.272Z,4808.00
2019-05-05T08:50:43.911Z,5724.00
2019-05-05T08:51:44.198Z,5776.00
2019-05-05T08:52:44.318Z,5192.00
2019-05-05T08:53:47.349Z,4384.00
2019-05-05T08:54:42.062Z,4616.00
2019-05-05T08:55:44.098Z,4528.00
2019-05-05T08:56:41.898Z,4020.00
2019-05-05T08:57:41.815Z,3624.00
2019-05-05T08:58:43.648Z,3572.00
2019-05-05T08:59:43.808Z,3468.00
2019-05-05T09:00:41.567Z,4040.00
2019-05-05T09:01:41.487Z,4128.00
2019-05-05T09:02:43.630Z,3932.00
2019-05-05T09:03:41.322Z,4040.00
2019-05-05T09:04:41.240Z,4352.00
2019-05-05T09:05:41.161Z,5272.00
2019-05-05T09:06:41.091Z,5756.00
2019-05-05T09:07:40.994Z,5460.00
2019-05-05T09:08:40.911Z,4868.00
2019-05-05T09:09:40.830Z,4736.00
2019-05-05T09:10:40.748Z,4612.00
2019-05-05T09:11:40.667Z,4328.00
2019-05-05T09:12:40.583Z,4292.00
2019-05-05T09:13:40.505Z,4276.00
2019-05-05T09:14:40.423Z,4316.00
2019-05-05T09:15:40.340Z,4676.00
2019-05-05T09:16:40.257Z,5124.00
2019-05-05T09:17:40.176Z,5628.00
2019-05-05T09:18:40.094Z,5444.00
2019-05-05T09:19:40.012Z,5548.00
2019-05-05T09:20:39.932Z,5792.00
2019-05-05T09:21:39.849Z,6052.00
2019-05-05T09:22:39.769Z,6296.00
2019-05-05T09:23:39.687Z,6924.00
2019-05-05T09:24:39.605Z,7552.00
2019-05-05T09:25:39.523Z,8344.00
2019-05-05T09:26:39.443Z,9136.00
2019-05-05T09:27:39.365Z,9964.00
2019-05-05T09:28:39.281Z,10316.00
2019-05-05T09:29:39.200Z,10120.00
2019-05-05T09:30:39.118Z,9968.00
2019-05-05T09:31:39.039Z,10248.00
2019-05-05T09:32:38.958Z,10380.00
2019-05-05T09:33:38.878Z,10508.00
2019-05-05T09:34:38.796Z,9840.00
2019-05-05T09:35:38.716Z,9476.00
2019-05-05T09:36:38.636Z,9212.00
2019-05-05T09:37:38.556Z,9140.00
2019-05-05T09:38:38.481Z,9324.00
2019-05-05T09:39:38.396Z,9336.00
2019-05-05T09:40:38.315Z,9028.00
2019-05-05T09:41:38.237Z,8628.00
2019-05-05T09:42:38.155Z,8296.00
2019-05-05T09:43:38.076Z,8616.00
2019-05-05T09:44:37.995Z,9200.00
2019-05-05T09:45:37.916Z,10196.00
2019-05-05T09:46:39.666Z,11184.00
2019-05-05T09:47:37.755Z,12184.00
2019-05-05T09:48:37.678Z,12428.00
2019-05-05T09:49:37.598Z,11444.00
2019-05-05T09:50:37.516Z,11428.00
2019-05-05T09:51:37.436Z,11692.00
2019-05-05T09:52:37.356Z,10500.00
2019-05-05T09:53:37.277Z,9456.00
2019-05-05T09:54:37.198Z,8500.00
2019-05-05T09:55:37.118Z,7524.00
2019-05-05T09:56:37.039Z,6476.00
2019-05-05T09:57:36.959Z,5596.00
2019-05-05T09:58:36.881Z,5012.00
2019-05-05T09:59:36.802Z,4696.00
2019-05-05T10:00:36.721Z,4568.00
2019-05-05T10:01:36.642Z,4528.00
2019-05-05T10:02:36.563Z,4500.00
2019-05-05T10:03:36.483Z,4524.00
2019-05-05T10:04:36.403Z,4624.00
2019-05-05T10:05:36.321Z,4820.00
2019-05-05T10:06:36.244Z,5024.00
2019-05-05T10:07:36.163Z,5020.00
2019-05-05T10:08:36.083Z,4960.00
2019-05-05T10:09:36.003Z,4816.00
2019-05-05T10:10:35.923Z,4700.00
2019-05-05T10:11:35.845Z,4660.00
2019-05-05T10:12:35.763Z,4716.00
2019-05-05T10:13:35.682Z,4900.00
2019-05-05T10:14:35.602Z,5296.00
2019-05-05T10:15:35.525Z,5924.00
2019-05-05T10:16:35.444Z,6796.00
2019-05-05T10:17:35.362Z,7924.00
2019-05-05T10:18:36.007Z,8952.00
2019-05-05T10:19:35.202Z,9412.00
2019-05-05T10:20:35.122Z,9476.00
2019-05-05T10:21:35.042Z,9416.00
2019-05-05T10:22:34.962Z,9360.00
2019-05-05T10:23:34.883Z,9228.00
2019-05-05T10:24:34.801Z,8800.00
2019-05-05T10:25:34.722Z,8324.00
2019-05-05T10:26:34.641Z,7988.00
2019-05-05T10:27:44.618Z,7720.00
2019-05-05T10:28:34.487Z,7372.00
2019-05-05T10:29:34.401Z,7028.00
2019-05-05T10:30:34.328Z,6696.00
2019-05-05T10:31:34.656Z,6504.00
2019-05-05T10:32:34.163Z,6624.00
2019-05-05T10:33:36.339Z,6916.00
2019-05-05T10:34:34.006Z,7416.00
2019-05-05T10:35:34.574Z,8128.00
2019-05-05T10:36:33.843Z,8920.00
2019-05-05T10:37:34.710Z,9892.00
2019-05-05T10:38:34.211Z,10712.00
2019-05-05T10:39:33.605Z,11216.00
2019-05-05T10:40:33.980Z,11140.00
2019-05-05T10:41:33.850Z,10756.00
2019-05-05T10:42:33.677Z,10084.00
2019-05-05T10:43:34.327Z,9508.00
2019-05-05T10:44:34.087Z,8984.00
2019-05-05T10:45:33.127Z,8584.00
2019-05-05T10:46:34.127Z,8328.00
2019-05-05T10:47:33.505Z,8380.00
2019-05-05T10:48:34.011Z,8424.00
2019-05-05T10:49:33.668Z,8380.00
2019-05-05T10:50:34.110Z,8396.00
2019-05-05T10:51:34.587Z,8792.00
2019-05-05T10:52:33.760Z,9056.00
2019-05-05T10:53:32.487Z,9136.00
2019-05-05T10:54:43.250Z,9004.00
2019-05-05T10:55:34.387Z,8968.00
2019-05-05T10:56:34.438Z,8860.00
2019-05-05T10:57:34.045Z,9044.00
2019-05-05T10:58:33.573Z,9396.00
2019-05-05T10:59:34.178Z,9860.00
2019-05-05T11:00:33.767Z,10692.00
2019-05-05T11:01:31.852Z,11472.00
2019-05-05T11:02:31.774Z,12020.00
2019-05-05T11:03:31.695Z,12688.00
2019-05-05T11:04:33.498Z,13272.00
2019-05-05T11:05:31.537Z,13836.00
2019-05-05T11:06:31.457Z,14132.00
2019-05-05T11:07:31.379Z,14920.00
2019-05-05T11:08:31.305Z,15136.00
2019-05-05T11:09:31.222Z,15344.00
2019-05-05T11:10:31.143Z,15148.00
2019-05-05T11:11:31.064Z,14840.00
2019-05-05T11:12:30.989Z,14788.00
2019-05-05T11:13:30.907Z,14648.00
2019-05-05T11:14:30.833Z,14644.00
2019-05-05T11:15:30.750Z,14108.00
2019-05-05T11:16:30.674Z,13576.00
2019-05-05T11:17:30.595Z,12932.00
2019-05-05T11:18:30.531Z,12448.00
2019-05-05T11:19:30.440Z,12192.00
2019-05-05T11:20:30.359Z,12344.00
2019-05-05T11:21:30.282Z,12948.00
2019-05-05T11:22:30.202Z,14596.00
2019-05-05T11:23:30.126Z,17312.00
2019-05-05T11:24:30.044Z,19744.00
2019-05-05T11:25:29.968Z,20864.00
2019-05-05T11:26:29.891Z,18912.00
2019-05-05T11:27:29.812Z,21024.00
2019-05-05T11:28:29.733Z,19584.00
2019-05-05T11:29:29.659Z,23840.00
2019-05-05T11:30:29.579Z,21760.00
2019-05-05T11:31:29.502Z,38016.00
2019-05-05T11:32:29.431Z,29280.00
2019-05-05T11:33:29.346Z,64608.00
2019-05-05T11:34:29.270Z,68480.00
2019-05-05T11:35:29.194Z,51968.00
2019-05-05T11:36:29.117Z,28736.00
2019-05-05T11:37:29.042Z,16224.00
2019-05-05T11:38:28.966Z,12796.00
2019-05-05T11:39:28.891Z,8984.00
2019-05-05T11:40:28.814Z,7228.00
2019-05-05T11:41:28.740Z,6148.00
2019-05-05T11:42:28.665Z,5496.00
2019-05-05T11:43:28.593Z,5272.00
2019-05-05T11:44:28.512Z,5516.00
2019-05-05T11:45:28.441Z,6188.00
2019-05-05T11:46:28.364Z,7056.00
2019-05-05T11:47:28.285Z,7816.00
2019-05-05T11:48:28.208Z,8572.00
2019-05-05T11:49:28.133Z,9424.00
2019-05-05T11:50:28.058Z,10368.00
2019-05-05T11:51:27.981Z,11392.00
2019-05-05T11:52:27.902Z,12932.00
2019-05-05T11:54:27.748Z,12080.00
2019-05-05T11:55:27.671Z,9220.00
2019-05-05T11:56:27.596Z,7960.00
2019-05-05T11:58:35.017Z,5532.00
2019-05-05T11:59:34.944Z,4356.00
2019-05-05T12:00:34.863Z,3700.00
2019-05-05T12:01:34.787Z,3540.00
2019-05-05T12:02:34.711Z,3708.00
2019-05-05T12:03:37.710Z,4020.00
2019-05-05T12:04:34.557Z,4404.00
2019-05-05T12:05:34.480Z,5024.00
2019-05-05T12:06:34.404Z,5776.00
2019-05-05T12:07:34.327Z,6608.00
2019-05-05T12:08:34.699Z,7552.00
2019-05-05T12:09:34.172Z,9592.00
2019-05-05T12:10:34.510Z,12664.00
2019-05-05T12:11:34.547Z,38880.00
2019-05-05T12:12:33.944Z,53600.00
2019-05-05T12:13:33.869Z,17088.00
2019-05-05T12:14:33.791Z,15688.00
2019-05-05T12:16:34.670Z,14172.00
2019-05-05T12:17:33.561Z,11816.00
2019-05-05T12:18:34.279Z,10108.00
2019-05-05T12:19:33.670Z,8992.00
2019-05-05T12:20:33.755Z,9232.00
2019-05-05T12:21:33.824Z,15252.00
2019-05-05T12:22:34.092Z,6404.00
2019-05-05T12:23:33.983Z,5612.00
2019-05-05T12:24:33.935Z,5364.00
2019-05-05T12:25:32.959Z,5216.00
2019-05-05T12:26:34.757Z,4996.00
2019-05-05T12:27:33.893Z,4768.00
2019-05-05T12:28:34.670Z,4648.00